Time;durP1;ratioP1;P1;durP2;ratioP2;P2;SDS_P1;SDS_P2;PMS_P1;PMS_P2;Temp;Humidity;BMP_temperature;BMP_pressure;BME280_temperature;BME280_humidity;BME280_pressure;Samples;Min_cycle;Max_cycle;Signal;HPM_P1;HPM_P2
2024/03/04 00:01:29;;;;;;;6.80;4.10;;;;;;;8.38;100.00;100727.06;5089899;28;20024;-39
2024/03/04 00:03:55;;;;;;;8.27;4.03;;;;;;;8.35;100.00;100724.78;5089874;28;20081;-39
2024/03/04 00:06:21;;;;;;;6.25;3.95;;;;;;;8.35;100.00;100721.25;5081787;28;20031;-39
2024/03/04 00:08:46;;;;;;;8.90;4.13;;;;;;;8.35;100.00;100714.00;5076287;28;20037;-40
2024/03/04 00:11:12;;;;;;;7.33;3.80;;;;;;;8.31;100.00;100715.47;5076447;28;20024;-40
2024/03/04 00:13:37;;;;;;;8.23;4.27;;;;;;;8.33;100.00;100726.84;5076155;28;20099;-40
2024/03/04 00:16:05;;;;;;;9.10;3.80;;;;;;;8.36;100.00;100728.31;5076182;28;20021;-40
2024/03/04 00:18:30;;;;;;;9.10;4.38;;;;;;;8.33;100.00;100728.72;5076627;28;20337;-40
2024/03/04 00:20:56;;;;;;;9.70;4.95;;;;;;;8.30;100.00;100724.63;5076036;28;20035;-40
2024/03/04 00:23:21;;;;;;;5.70;3.73;;;;;;;8.31;100.00;100734.34;5076249;28;20024;-41
2024/03/04 00:25:47;;;;;;;8.05;4.22;;;;;;;8.28;100.00;100740.16;5076227;28;20032;-40
2024/03/04 00:28:12;;;;;;;6.68;3.75;;;;;;;8.23;100.00;100734.59;5076504;28;20477;-40
2024/03/04 00:30:37;;;;;;;5.73;4.00;;;;;;;8.21;100.00;100731.31;5075678;28;20433;-40
2024/03/04 00:33:03;;;;;;;7.10;3.70;;;;;;;8.19;100.00;100746.84;5076090;28;20047;-40
2024/03/04 00:35:28;;;;;;;4.20;3.25;;;;;;;8.12;100.00;100738.00;5075797;28;20056;-40
2024/03/04 00:37:54;;;;;;;5.97;3.97;;;;;;;8.16;100.00;100745.44;5076036;28;20071;-40
2024/03/04 00:40:19;;;;;;;5.73;3.40;;;;;;;8.16;100.00;100750.81;5075483;28;20115;-40
2024/03/04 00:42:44;;;;;;;6.20;3.65;;;;;;;8.15;100.00;100748.31;5075637;28;20275;-39
2024/03/04 00:45:12;;;;;;;7.53;3.67;;;;;;;8.16;100.00;100750.00;5075937;28;20040;-39
2024/03/04 00:47:37;;;;;;;5.20;3.25;;;;;;;8.17;100.00;100748.94;5075230;28;20062;-40
2024/03/04 00:50:03;;;;;;;4.60;3.60;;;;;;;8.08;100.00;100736.78;5075837;28;20444;-40
2024/03/04 00:52:28;;;;;;;7.80;4.05;;;;;;;8.14;100.00;100757.44;5075471;28;20361;-40
2024/03/04 00:54:54;;;;;;;5.78;3.65;;;;;;;8.13;100.00;100755.81;5075572;28;20044;-40
2024/03/04 00:57:21;;;;;;;6.67;3.70;;;;;;;8.15;100.00;100765.34;5075757;28;20036;-40
2024/03/04 00:59:46;;;;;;;5.05;3.65;;;;;;;8.10;100.00;100761.63;5075074;28;20027;-40
2024/03/04 01:02:12;;;;;;;8.13;4.10;;;;;;;8.14;100.00;100774.44;5074916;28;20103;-40
2024/03/04 01:04:37;;;;;;;5.97;3.63;;;;;;;8.11;100.00;100771.38;5075568;28;20063;-40
2024/03/04 01:07:03;;;;;;;5.45;3.70;;;;;;;8.09;100.00;100770.75;5075431;28;20028;-39
2024/03/04 01:09:28;;;;;;;7.07;3.22;;;;;;;8.13;100.00;100778.19;5075134;28;20028;-39
2024/03/04 01:11:53;;;;;;;4.82;2.85;;;;;;;8.13;100.00;100788.13;5075041;28;20187;-39
2024/03/04 01:14:20;;;;;;;6.47;3.20;;;;;;;8.11;100.00;100780.28;5075263;28;20043;-39
2024/03/04 01:16:48;;;;;;;;;;;;;;;8.22;100.00;100793.03;5075236;28;20021;-39
2024/03/04 01:19:13;;;;;;;5.28;3.40;;;;;;;8.13;100.00;100793.50;5074181;28;19948;-39
2024/03/04 01:21:39;;;;;;;6.05;2.80;;;;;;;8.15;100.00;100804.88;5075369;28;20048;-39
2024/03/04 01:24:04;;;;;;;5.15;2.95;;;;;;;8.16;100.00;100798.47;5074884;28;20082;-40
2024/03/04 01:26:30;;;;;;;5.50;2.80;;;;;;;8.16;100.00;100809.25;5074972;28;20031;-40
2024/03/04 01:28:55;;;;;;;4.47;2.83;;;;;;;8.09;100.00;100811.13;5074844;28;20119;-39
2024/03/04 01:31:21;;;;;;;6.20;3.17;;;;;;;8.09;100.00;100814.66;5074417;28;20368;-40
2024/03/04 01:33:49;;;;;;;6.43;3.38;;;;;;;8.13;100.00;100826.66;5074276;28;20081;-39
2024/03/04 01:36:19;;;;;;;7.32;3.30;;;;;;;8.10;100.00;100828.94;5074297;28;20490;-39
2024/03/04 01:38:44;;;;;;;5.50;2.88;;;;;;;8.08;100.00;100831.03;5074537;28;20024;-39
2024/03/04 01:41:10;;;;;;;5.55;2.90;;;;;;;8.07;100.00;100826.69;5074554;28;20024;-40
2024/03/04 01:43:35;;;;;;;6.13;2.93;;;;;;;8.09;100.00;100836.19;5074585;28;20025;-40
2024/03/04 01:46:01;;;;;;;7.55;3.20;;;;;;;8.07;100.00;100848.25;5074384;28;20263;-40
2024/03/04 01:48:26;;;;;;;5.25;2.85;;;;;;;8.04;100.00;100852.19;5074683;28;20158;-39
2024/03/04 01:50:54;;;;;;;4.77;2.80;;;;;;;8.02;100.00;100853.44;5074924;28;20048;-40
2024/03/04 01:53:22;;;;;;;5.75;2.80;;;;;;;8.00;100.00;100854.50;5074854;28;20031;-40
2024/03/04 01:56:00;;;;;;;5.88;2.75;;;;;;;7.94;100.00;100849.13;5074775;28;20456;-40
2024/03/04 01:58:26;;;;;;;5.65;2.88;;;;;;;7.90;100.00;100848.72;5074181;28;20354;-40
2024/03/04 02:00:52;;;;;;;5.55;2.65;;;;;;;7.97;100.00;100857.59;5074130;28;20078;-40
2024/03/04 02:03:19;;;;;;;4.30;2.50;;;;;;;7.93;100.00;100852.84;5074102;28;20096;-40
2024/03/04 02:05:47;;;;;;;4.22;2.40;;;;;;;7.96;100.00;100857.81;5074579;28;20052;-40
2024/03/04 02:08:12;;;;;;;5.15;2.70;;;;;;;7.94;100.00;100855.31;5074613;28;20027;-40
2024/03/04 02:10:39;;;;;;;6.38;3.08;;;;;;;7.91;100.00;100855.78;5074270;28;20453;-39
2024/03/04 02:13:05;;;;;;;7.47;3.15;;;;;;;7.87;100.00;100859.09;5073913;28;20470;-41
2024/03/04 02:15:37;;;;;;;;;;;;;;;7.97;100.00;100876.47;5074607;28;20115;-39
2024/03/04 02:18:05;;;;;;;5.18;2.75;;;;;;;7.84;100.00;100875.66;5074126;28;19909;-40
2024/03/04 02:20:36;;;;;;;5.72;3.38;;;;;;;7.79;100.00;100867.41;5073549;28;20048;-40
2024/03/04 02:23:03;;;;;;;8.48;3.78;;;;;;;7.78;100.00;100871.13;5074109;28;20025;-40
2024/03/04 02:25:35;;;;;;;5.85;3.00;;;;;;;7.85;100.00;100875.44;5074031;28;20028;-39
2024/03/04 02:28:02;;;;;;;5.25;3.38;;;;;;;7.80;100.00;100877.94;5073389;28;20052;-39
2024/03/04 02:30:28;;;;;;;5.32;3.75;;;;;;;7.78;100.00;100882.72;5074028;28;20024;-39
2024/03/04 02:32:54;;;;;;;7.38;3.95;;;;;;;7.70;100.00;100872.19;5073732;28;20031;-39
2024/03/04 02:35:20;;;;;;;6.95;3.40;;;;;;;7.77;100.00;100886.47;5073573;28;20032;-39
2024/03/04 02:37:45;;;;;;;4.00;3.00;;;;;;;7.78;100.00;100889.97;5073590;28;20028;-40
2024/03/04 02:40:11;;;;;;;4.97;3.10;;;;;;;7.79;100.00;100891.63;5074141;28;20033;-40
2024/03/04 02:42:36;;;;;;;6.95;3.40;;;;;;;7.79;100.00;100895.16;5073776;28;20031;-40
2024/03/04 02:45:02;;;;;;;5.37;3.07;;;;;;;7.74;100.00;100886.88;5073283;28;20024;-38
2024/03/04 02:47:27;;;;;;;5.82;3.35;;;;;;;7.76;100.00;100900.97;5074218;28;20107;-39
2024/03/04 02:49:52;;;;;;;4.20;2.47;;;;;;;7.78;100.00;100895.38;5073594;28;20087;-39
2024/03/04 02:52:18;;;;;;;3.03;2.27;;;;;;;7.76;100.00;100895.59;5073474;28;20024;-40
2024/03/04 02:54:43;;;;;;;4.70;2.90;;;;;;;7.73;100.00;100896.81;5073360;28;20040;-39
2024/03/04 02:57:10;;;;;;;5.20;2.57;;;;;;;7.68;100.00;100893.94;5073505;28;20419;-39
2024/03/04 02:59:36;;;;;;;3.85;2.55;;;;;;;7.68;100.00;100899.31;5074177;28;20021;-39
2024/03/04 03:02:01;;;;;;;4.53;2.20;;;;;;;7.61;100.00;100889.59;5073393;28;20078;-39
2024/03/04 03:04:26;;;;;;;3.77;2.20;;;;;;;7.67;100.00;100896.84;5073913;28;20024;-39
2024/03/04 03:06:52;;;;;;;4.37;2.30;;;;;;;7.68;100.00;100898.50;5073641;28;20479;-39
2024/03/04 03:09:18;;;;;;;4.68;2.30;;;;;;;7.64;100.00;100908.03;5073871;28;20298;-39
2024/03/04 03:11:43;;;;;;;3.70;2.40;;;;;;;7.69;100.00;100916.28;5074284;28;20028;-39
2024/03/04 03:14:09;;;;;;;4.75;2.30;;;;;;;7.68;100.00;100909.25;5073235;28;20024;-40
2024/03/04 03:16:34;;;;;;;4.27;2.67;;;;;;;7.67;100.00;100915.69;5073045;28;20035;-40
2024/03/04 03:19:00;;;;;;;3.78;2.10;;;;;;;7.68;100.00;100917.34;5073276;28;20028;-40
2024/03/04 03:21:29;;;;;;;5.05;1.85;;;;;;;7.68;100.00;100928.09;5073231;28;20020;-41
2024/03/04 03:23:55;;;;;;;5.45;2.70;;;;;;;7.68;100.00;100928.94;5073511;28;20028;-40
2024/03/04 03:26:21;;;;;;;;;;;;;;;7.78;100.00;100925.81;5073559;28;20027;-40
2024/03/04 03:28:47;;;;;;;3.65;2.03;;;;;;;7.71;100.00;100930.34;5073184;28;19962;-40
2024/03/04 03:31:12;;;;;;;2.87;2.40;;;;;;;7.69;100.00;100938.66;5073107;28;20056;-40
2024/03/04 03:33:38;;;;;;;4.60;2.53;;;;;;;7.68;100.00;100930.78;5073149;28;20079;-40
2024/03/04 03:36:05;;;;;;;3.60;2.47;;;;;;;7.54;100.00;100907.63;5072999;28;20039;-40
2024/03/04 03:38:32;;;;;;;4.63;2.63;;;;;;;7.65;100.00;100929.34;5073292;28;20027;-40
2024/03/04 03:40:58;;;;;;;5.45;2.85;;;;;;;7.65;100.00;100926.66;5073772;28;20021;-40
2024/03/04 03:43:24;;;;;;;4.43;2.97;;;;;;;7.68;100.00;100933.47;5076768;28;20028;-40
2024/03/04 03:45:50;;;;;;;5.75;2.60;;;;;;;7.68;100.00;100933.47;5076715;28;20382;-40
2024/03/04 03:48:16;;;;;;;4.72;2.38;;;;;;;7.58;100.00;100928.53;5076667;28;20031;-39
2024/03/04 03:50:41;;;;;;;4.60;3.05;;;;;;;7.56;100.00;100930.59;5077229;28;20027;-48
2024/03/04 03:53:07;;;;;;;4.45;2.70;;;;;;;7.55;100.00;100931.63;5076188;28;20033;-40
2024/03/04 03:55:32;;;;;;;4.03;2.30;;;;;;;7.60;100.00;100939.91;5077052;28;20086;-40
2024/03/04 03:57:57;;;;;;;3.87;2.40;;;;;;;7.61;100.00;100946.97;5077312;28;20025;-40
2024/03/04 04:00:23;;;;;;;4.93;2.27;;;;;;;7.61;100.00;100951.50;5076428;28;20099;-40
2024/03/04 04:02:48;;;;;;;4.47;2.20;;;;;;;7.62;100.00;100954.00;5076467;28;20261;-40
2024/03/04 04:05:14;;;;;;;6.97;2.75;;;;;;;7.54;100.00;100948.00;5075082;28;20134;-40
2024/03/04 04:07:39;;;;;;;5.28;3.58;;;;;;;7.57;100.00;100950.28;5077207;28;20027;-40
2024/03/04 04:10:05;;;;;;;4.37;2.40;;;;;;;7.58;100.00;100958.13;5076344;28;20055;-40
2024/03/04 04:12:30;;;;;;;5.53;2.33;;;;;;;7.57;100.00;100959.19;5076259;28;20448;-39
2024/03/04 04:14:56;;;;;;;4.47;2.10;;;;;;;7.59;100.00;100964.34;5076494;28;20025;-40
2024/03/04 04:17:22;;;;;;;4.57;2.17;;;;;;;7.55;100.00;100957.72;5076390;28;20031;-40
2024/03/04 04:19:47;;;;;;;5.88;2.40;;;;;;;7.49;100.00;100949.44;5076465;28;20365;-40
2024/03/04 04:22:13;;;;;;;4.83;2.40;;;;;;;7.51;100.00;100961.84;5076106;28;20021;-40
2024/03/04 04:24:38;;;;;;;6.03;2.37;;;;;;;7.48;100.00;100969.31;5074840;28;20021;-40
2024/03/04 04:27:04;;;;;;;4.32;2.10;;;;;;;7.54;100.00;100991.88;5075719;28;20024;-40
2024/03/04 04:29:29;;;;;;;3.75;2.10;;;;;;;7.53;100.00;100997.47;5076526;28;20032;-40
2024/03/04 04:31:55;;;;;;;5.47;2.70;;;;;;;7.54;100.00;100988.34;5075670;28;20495;-40
2024/03/04 04:34:20;;;;;;;3.40;2.30;;;;;;;7.53;100.00;100992.09;5075332;28;20420;-40
2024/03/04 04:36:53;;;;;;;5.70;2.92;;;;;;;7.44;100.00;100978.84;5075671;28;20021;-40
2024/03/04 04:39:18;;;;;;;5.90;2.25;;;;;;;7.49;100.00;100989.81;5075352;28;20524;-39
2024/03/04 04:41:44;;;;;;;4.13;2.10;;;;;;;7.52;100.00;100995.81;5075553;28;20104;-39
2024/03/04 04:44:10;;;;;;;5.07;2.40;;;;;;;7.49;100.00;101008.63;5076389;28;20032;-39
2024/03/04 04:46:39;;;;;;;4.15;2.20;;;;;;;7.48;100.00;101012.38;5075466;28;20016;-39
2024/03/04 04:49:05;;;;;;;4.82;2.30;;;;;;;7.45;100.00;101012.78;5075586;28;20020;-39
2024/03/04 04:51:31;;;;;;;3.78;1.90;;;;;;;7.47;100.00;101017.97;5075646;28;20024;-39
2024/03/04 04:53:57;;;;;;;3.08;1.80;;;;;;;7.44;100.00;101021.88;5075469;28;20101;-39
2024/03/04 04:56:22;;;;;;;2.97;2.13;;;;;;;7.43;100.00;101014.03;5075416;28;20441;-40
2024/03/04 04:58:48;;;;;;;3.77;1.87;;;;;;;7.46;100.00;101017.13;5075363;28;20589;-39
2024/03/04 05:01:13;;;;;;;4.70;2.25;;;;;;;7.43;100.00;101020.22;5075292;28;20533;-39
2024/03/04 05:03:38;;;;;;;5.72;2.50;;;;;;;7.47;100.00;101034.94;5074339;28;20484;-39
2024/03/04 05:06:04;;;;;;;4.30;2.10;;;;;;;7.53;100.00;101035.16;5075168;28;20033;-39
2024/03/04 05:08:30;;;;;;;7.35;2.65;;;;;;;7.45;100.00;101012.78;5075141;28;20279;-39
2024/03/04 05:10:55;;;;;;;4.97;2.50;;;;;;;7.54;100.00;101032.25;5075627;28;20012;-39
2024/03/04 05:13:20;;;;;;;5.03;2.00;;;;;;;7.54;100.00;101040.31;5075028;28;20028;-39
2024/03/04 05:15:46;;;;;;;3.10;1.80;;;;;;;7.53;100.00;101040.53;5074893;28;20289;-39
2024/03/04 05:18:12;;;;;;;4.78;2.13;;;;;;;7.53;100.00;101040.53;5075516;28;20112;-39
2024/03/04 05:20:37;;;;;;;5.05;1.67;;;;;;;7.48;100.00;101039.28;5074619;28;20024;-39
2024/03/04 05:23:03;;;;;;;4.67;2.27;;;;;;;7.45;100.00;101039.69;5075638;28;20082;-39
2024/03/04 05:25:29;;;;;;;6.50;1.73;;;;;;;7.43;100.00;101044.44;5074834;28;20028;-39
2024/03/04 05:27:54;;;;;;;3.45;1.65;;;;;;;7.38;100.00;101044.25;5074763;28;20020;-39
2024/03/04 05:30:20;;;;;;;2.95;1.50;;;;;;;7.41;100.00;101049.19;5074482;28;20082;-39
2024/03/04 05:32:45;;;;;;;3.63;1.40;;;;;;;7.44;100.00;101043.41;5074763;28;20113;-40
2024/03/04 05:35:11;;;;;;;3.47;1.45;;;;;;;7.41;100.00;101046.50;5075275;28;20325;-40
2024/03/04 05:37:37;;;;;;;5.10;1.67;;;;;;;7.40;100.00;101050.22;5074311;28;20031;-40
2024/03/04 05:40:09;;;;;;;2.90;1.40;;;;;;;7.39;100.00;101050.44;5075115;28;20031;-40
2024/03/04 05:42:39;;;;;;;4.70;1.85;;;;;;;7.35;100.00;101052.72;5075030;28;20063;-40
2024/03/04 05:45:12;;;;;;;3.65;1.13;;;;;;;7.29;100.00;101053.53;5074713;28;20085;-40
2024/03/04 05:47:38;;;;;;;3.25;1.13;;;;;;;7.32;100.00;101063.91;5074681;28;20436;-40
2024/03/04 05:50:05;;;;;;;3.08;1.25;;;;;;;7.31;100.00;101074.84;5074601;28;20055;-40
2024/03/04 05:52:30;;;;;;;;;;;;;;;7.40;100.00;101084.38;5074675;28;20079;-40
2024/03/04 05:54:55;;;;;;;2.33;1.00;;;;;;;7.30;100.00;101079.41;5074440;28;19912;-40
2024/03/04 05:57:21;;;;;;;3.07;1.10;;;;;;;7.25;100.00;101081.03;5074210;28;20056;-40
2024/03/04 05:59:46;;;;;;;3.07;1.13;;;;;;;7.25;100.00;101081.03;5074485;28;20020;-40
2024/03/04 06:02:11;;;;;;;2.53;1.00;;;;;;;7.25;100.00;101098.00;5074094;28;20032;-40
2024/03/04 06:04:37;;;;;;;3.40;1.10;;;;;;;7.25;100.00;101098.00;5073914;28;20020;-42
2024/03/04 06:07:03;;;;;;;3.90;1.60;;;;;;;7.25;100.00;101097.19;5074020;28;20024;-40
2024/03/04 06:09:28;;;;;;;3.28;1.20;;;;;;;7.26;100.00;101104.22;5074071;28;20020;-40
2024/03/04 06:11:53;;;;;;;4.17;1.43;;;;;;;7.25;100.00;101103.38;5073920;28;20025;-40
2024/03/04 06:14:19;;;;;;;3.07;1.00;;;;;;;7.24;100.00;101104.44;5073858;28;20035;-40
2024/03/04 06:16:45;;;;;;;4.93;1.33;;;;;;;7.22;100.00;101099.25;5073609;28;20104;-40
2024/03/04 06:19:10;;;;;;;2.63;0.95;;;;;;;7.23;100.00;101100.09;5073918;28;20020;-40
2024/03/04 06:21:36;;;;;;;2.38;1.00;;;;;;;7.22;100.00;101106.47;5073493;28;20452;-40
2024/03/04 06:24:05;;;;;;;2.43;1.00;;;;;;;7.20;100.00;101112.06;5073848;28;20035;-40
2024/03/04 06:26:31;;;;;;;2.58;1.00;;;;;;;7.18;100.00;101108.75;5073984;28;20089;-40
2024/03/04 06:28:57;;;;;;;3.63;0.90;;;;;;;7.17;100.00;101109.78;5073803;28;20028;-40
2024/03/04 06:31:22;;;;;;;2.30;0.85;;;;;;;7.14;100.00;101107.50;5073631;28;20028;-40
2024/03/04 06:33:48;;;;;;;2.53;1.00;;;;;;;7.27;100.00;101119.31;5073792;28;20032;-39
2024/03/04 06:36:14;;;;;;;3.78;0.98;;;;;;;7.22;100.00;101114.53;5073318;28;20449;-40
2024/03/04 06:38:40;;;;;;;3.17;1.10;;;;;;;7.28;100.00;101121.81;5074028;28;20025;-39
2024/03/04 06:41:06;;;;;;;;;;;;;;;7.39;100.00;101117.72;5074153;28;20078;-39
2024/03/04 06:43:32;;;;;;;2.00;1.10;;;;;;;7.28;100.00;101121.00;5073406;28;20007;-40
2024/03/04 06:45:58;;;;;;;3.25;1.23;;;;;;;7.26;100.00;101123.03;5073440;28;20028;-40
2024/03/04 06:48:24;;;;;;;4.25;1.30;;;;;;;7.28;100.00;101124.50;5073687;28;20465;-40
2024/03/04 06:50:49;;;;;;;3.83;1.30;;;;;;;7.27;100.00;101112.09;5073416;28;20468;-40
2024/03/04 06:53:14;;;;;;;3.77;1.47;;;;;;;7.36;100.00;101123.47;5073365;28;20031;-39
2024/03/04 06:55:40;;;;;;;2.20;1.13;;;;;;;7.35;100.00;101114.59;5073719;28;20135;-39
2024/03/04 06:58:05;;;;;;;2.35;1.23;;;;;;;7.40;100.00;101122.03;5073821;28;20067;-39
2024/03/04 07:00:30;;;;;;;2.87;1.17;;;;;;;7.40;100.00;101120.19;5073810;28;20042;-39
2024/03/04 07:02:56;;;;;;;2.77;1.33;;;;;;;7.42;100.00;101109.25;5073291;28;20047;-39
2024/03/04 07:05:21;;;;;;;3.37;1.30;;;;;;;7.42;100.00;101112.75;5073779;28;20025;-39
2024/03/04 07:07:47;;;;;;;4.23;1.53;;;;;;;7.46;100.00;101115.84;5073600;28;20016;-39
2024/03/04 07:10:12;;;;;;;2.00;0.97;;;;;;;7.55;100.00;101108.41;5073272;28;20032;-39
2024/03/04 07:12:37;;;;;;;3.00;1.40;;;;;;;7.59;100.00;101105.13;5072841;28;20335;-39
2024/03/04 07:15:06;;;;;;;2.35;1.27;;;;;;;7.64;100.00;101097.25;5073447;28;20024;-39
2024/03/04 07:17:32;;;;;;;2.63;1.30;;;;;;;7.71;100.00;101108.88;5076636;28;20032;-39
2024/03/04 07:19:57;;;;;;;3.58;1.30;;;;;;;7.83;100.00;101111.78;5077270;28;20033;-39
2024/03/04 07:22:22;;;;;;;2.78;1.33;;;;;;;7.85;100.00;101104.31;5076846;28;20103;-40
2024/03/04 07:24:48;;;;;;;3.17;1.23;;;;;;;7.96;100.00;101116.34;5076923;28;20048;-39
2024/03/04 07:27:14;;;;;;;4.43;1.10;;;;;;;8.03;100.00;101116.34;5076782;28;20021;-39
2024/03/04 07:29:40;;;;;;;4.68;1.25;;;;;;;8.04;100.00;101112.59;5077538;28;20359;-39
2024/03/04 07:32:06;;;;;;;4.95;1.48;;;;;;;8.15;100.00;101114.66;5076914;28;20021;-39
2024/03/04 07:34:31;;;;;;;3.17;1.30;;;;;;;8.09;100.00;101120.88;5077387;28;20099;-39
2024/03/04 07:36:57;;;;;;;5.13;2.07;;;;;;;8.08;100.00;101125.44;5077342;28;20409;-40
2024/03/04 07:39:23;;;;;;;4.68;1.45;;;;;;;8.00;100.00;101117.56;5077084;28;20303;-40
2024/03/04 07:41:49;;;;;;;;;;;;;;;8.18;100.00;101130.41;5077187;28;20471;-40
2024/03/04 07:44:20;;;;;;;2.50;1.13;;;;;;;8.04;100.00;101139.53;5077526;28;19904;-40
2024/03/04 07:46:47;;;;;;;4.30;1.25;;;;;;;7.97;100.00;101126.91;5076488;28;20062;-40
2024/03/04 07:49:13;;;;;;;3.97;1.30;;;;;;;8.09;100.00;101134.34;5076624;28;20036;-40
2024/03/04 07:51:39;;;;;;;7.47;1.85;;;;;;;8.07;100.00;101121.09;5076581;28;20013;-40
2024/03/04 07:54:04;;;;;;;3.55;1.30;;;;;;;8.19;100.00;101140.97;5076428;28;20045;-40
2024/03/04 07:56:31;;;;;;;3.13;1.55;;;;;;;8.21;100.00;101132.69;5076501;28;20028;-40
2024/03/04 07:58:57;;;;;;;3.47;1.73;;;;;;;8.28;100.00;101133.50;5076673;28;20024;-39
2024/03/04 08:01:22;;;;;;;3.80;1.37;;;;;;;8.36;100.00;101122.56;5076629;28;20016;-39
2024/03/04 08:03:47;;;;;;;3.13;1.20;;;;;;;8.51;100.00;101130.41;5076439;28;20052;-40
2024/03/04 08:06:13;;;;;;;3.13;1.30;;;;;;;8.58;100.00;101141.16;5076630;28;20021;-39
2024/03/04 08:08:38;;;;;;;2.87;1.10;;;;;;;8.63;100.00;101131.41;5076834;28;20028;-39
2024/03/04 08:11:04;;;;;;;2.77;1.10;;;;;;;8.65;100.00;101137.44;5076276;28;20024;-39
2024/03/04 08:13:29;;;;;;;3.83;0.85;;;;;;;8.72;100.00;101138.22;5076243;28;20172;-39
2024/03/04 08:15:55;;;;;;;2.20;1.02;;;;;;;8.73;100.00;101149.84;5075752;28;20035;-39
2024/03/04 08:18:20;;;;;;;2.67;1.02;;;;;;;8.76;100.00;101152.13;5076123;28;20020;-39
2024/03/04 08:20:48;;;;;;;3.95;0.85;;;;;;;8.78;100.00;101152.72;5075728;28;20147;-39
2024/03/04 08:23:13;;;;;;;2.03;0.60;;;;;;;8.84;100.00;101157.28;5076485;28;20025;-39
2024/03/04 08:25:39;;;;;;;3.13;0.88;;;;;;;8.85;100.00;101164.34;5076496;28;20055;-39
2024/03/04 08:28:05;;;;;;;1.67;0.70;;;;;;;8.92;100.00;101164.31;5076282;28;20123;-39
2024/03/04 08:30:30;;;;;;;3.58;0.90;;;;;;;8.90;100.00;101161.00;5075880;28;20032;-39
2024/03/04 08:32:55;;;;;;;1.90;0.60;;;;;;;8.91;100.00;101171.56;5076415;28;20028;-40
2024/03/04 08:35:21;;;;;;;2.50;0.80;;;;;;;8.91;100.00;101166.19;5075752;28;20039;-39
2024/03/04 08:37:47;;;;;;;1.73;0.60;;;;;;;8.91;100.00;101171.56;5075830;28;20024;-39
2024/03/04 08:40:15;;;;;;;;;;;;;;;9.03;100.00;101177.16;5075777;28;20263;-40
2024/03/04 08:42:41;;;;;;;1.48;0.68;;;;;;;8.83;100.00;101169.09;5075704;28;19931;-39
2024/03/04 08:45:08;;;;;;;2.22;0.70;;;;;;;8.92;100.00;101170.53;5075917;28;20367;-39
2024/03/04 08:47:33;;;;;;;;;;;;;;;9.03;100.00;101175.28;5075974;28;20336;-39
2024/03/04 08:50:00;;;;;;;3.23;0.93;;;;;;;8.95;100.00;101175.50;5075807;28;19911;-39
2024/03/04 08:52:27;;;;;;;3.58;0.80;;;;;;;8.87;100.00;101167.63;5075454;28;20278;-40
2024/03/04 08:54:53;;;;;;;1.25;0.65;;;;;;;8.92;100.00;101175.94;5076088;28;20094;-40
2024/03/04 08:57:19;;;;;;;3.35;0.80;;;;;;;8.94;100.00;101179.25;5075992;28;20402;-40
2024/03/04 08:59:44;;;;;;;2.97;0.77;;;;;;;8.97;100.00;101170.72;5075653;28;20020;-40
2024/03/04 09:02:10;;;;;;;2.83;0.70;;;;;;;9.01;100.00;101169.25;5075306;28;20023;-40
2024/03/04 09:04:36;;;;;;;2.03;0.65;;;;;;;9.06;100.00;101159.72;5076135;28;20036;-40
2024/03/04 09:07:01;;;;;;;2.10;0.65;;;;;;;9.20;100.00;101166.72;5075210;28;20412;-38
2024/03/04 09:09:26;;;;;;;2.30;0.90;;;;;;;9.22;100.00;101162.78;5075491;28;20028;-38
2024/03/04 09:11:52;;;;;;;1.43;0.50;;;;;;;9.29;100.00;101170.81;5075670;28;20028;-40
2024/03/04 09:14:21;;;;;;;1.38;0.68;;;;;;;9.33;100.00;101163.13;5075579;28;20111;-39
2024/03/04 09:16:46;;;;;;;2.20;0.70;;;;;;;9.40;100.00;101170.13;5075123;28;20031;-39
2024/03/04 09:19:11;;;;;;;2.33;0.50;;;;;;;9.42;100.00;101165.38;5074986;28;20020;-39
2024/03/04 09:21:37;;;;;;;3.23;0.70;;;;;;;9.40;100.00;101166.63;5075186;28;20052;-39
2024/03/04 09:24:03;;;;;;;1.77;0.50;;;;;;;9.53;100.00;101166.56;5075159;28;20368;-39
2024/03/04 09:26:28;;;;;;;2.20;0.60;;;;;;;9.55;100.00;101159.06;5075259;28;20356;-39
2024/03/04 09:28:53;;;;;;;1.83;0.60;;;;;;;9.76;100.00;101163.28;5075379;28;20496;-39
2024/03/04 09:31:19;;;;;;;2.17;0.50;;;;;;;9.82;100.00;101170.53;5074668;28;20032;-38
2024/03/04 09:33:45;;;;;;;2.85;0.88;;;;;;;9.86;100.00;101168.19;5074369;28;20035;-38
2024/03/04 09:36:11;;;;;;;3.15;0.90;;;;;;;9.83;100.00;101172.19;5074438;28;20025;-39
2024/03/04 09:38:36;;;;;;;0.80;0.40;;;;;;;10.00;100.00;101172.47;5074074;28;20024;-39
2024/03/04 09:41:03;;;;;;;0.93;0.40;;;;;;;10.06;100.00;101174.31;5074498;28;20267;-39
2024/03/04 09:43:29;;;;;;;1.05;0.40;;;;;;;10.14;100.00;101160.50;5074023;28;20649;-39
2024/03/04 09:45:57;;;;;;;1.38;0.60;;;;;;;10.23;100.00;101171.88;5074673;28;20025;-39
2024/03/04 09:48:24;;;;;;;1.65;0.50;;;;;;;10.15;100.00;101174.84;5074678;28;20021;-39
2024/03/04 09:50:52;;;;;;;2.83;1.20;;;;;;;10.13;100.00;101160.75;5075045;28;20063;-40
2024/03/04 09:53:19;;;;;;;1.88;0.60;;;;;;;10.25;100.00;101180.66;5074257;28;20099;-40
2024/03/04 09:55:44;;;;;;;0.90;0.43;;;;;;;10.25;100.00;101172.53;5073945;28;20136;-40
2024/03/04 09:58:10;;;;;;;1.85;0.63;;;;;;;10.31;100.00;101179.75;5074747;28;20108;-40
2024/03/04 10:00:38;;;;;;;0.88;0.38;;;;;;;10.25;100.00;101178.78;5074371;28;20104;-39
2024/03/04 10:03:06;;;;;;;1.73;0.50;;;;;;;10.26;100.00;101187.69;5074864;28;20020;-39
2024/03/04 10:05:32;;;;;;;3.15;1.25;;;;;;;10.26;100.00;101185.00;5073700;28;20380;-40
2024/03/04 10:07:58;;;;;;;1.45;0.70;;;;;;;10.24;100.00;101178.97;5073956;28;20021;-39
2024/03/04 10:10:23;;;;;;;2.33;0.60;;;;;;;10.36;100.00;101189.91;5073961;28;20033;-39
2024/03/04 10:12:49;;;;;;;1.48;0.70;;;;;;;10.38;100.00;101191.31;5073969;28;20024;-39
2024/03/04 10:15:17;;;;;;;1.92;0.90;;;;;;;10.38;100.00;101195.91;5074072;28;20016;-39
2024/03/04 10:17:43;;;;;;;1.98;0.65;;;;;;;10.34;100.00;101198.22;5074025;28;20028;-39
2024/03/04 10:20:13;;;;;;;1.60;0.80;;;;;;;10.36;100.00;101209.66;5073559;28;20028;-39
2024/03/04 10:22:39;;;;;;;2.42;0.75;;;;;;;10.38;100.00;101196.72;5074068;28;20020;-39
2024/03/04 10:25:07;;;;;;;1.42;0.80;;;;;;;10.43;98.54;101212.28;5074259;28;20449;-39
2024/03/04 10:27:34;;;;;;;3.38;1.08;;;;;;;10.45;98.13;101212.91;5073999;28;20024;-39
2024/03/04 10:30:10;;;;;;;1.48;0.75;;;;;;;10.51;100.00;101207.44;5074489;28;20473;-39
2024/03/04 10:32:37;;;;;;;4.07;0.93;;;;;;;10.47;96.26;101219.75;5074212;28;20093;-39
2024/03/04 10:35:06;;;;;;;1.15;0.57;;;;;;;10.54;95.89;101214.28;5073745;28;20445;-39
2024/03/04 10:37:32;;;;;;;2.22;0.80;;;;;;;10.53;96.17;101220.72;5073229;28;20045;-39
2024/03/04 10:39:58;;;;;;;2.10;0.90;;;;;;;10.57;94.69;101217.38;5073836;28;20028;-39
2024/03/04 10:42:24;;;;;;;2.58;0.90;;;;;;;10.63;98.16;101204.81;5074330;28;20025;-39
2024/03/04 10:44:52;;;;;;;1.13;0.60;;;;;;;10.66;96.30;101217.91;5073857;28;20024;-39
2024/03/04 10:47:23;;;;;;;1.40;0.80;;;;;;;10.70;95.02;101210.19;5073120;28;20032;-39
2024/03/04 10:49:51;;;;;;;2.50;1.20;;;;;;;10.76;95.03;101212.00;5073310;28;20028;-39
2024/03/04 10:52:18;;;;;;;2.20;1.00;;;;;;;10.77;92.42;101206.34;5073480;28;20460;-39
2024/03/04 10:54:43;;;;;;;7.63;1.33;;;;;;;10.82;95.09;101208.38;5074074;28;20344;-39
2024/03/04 10:57:23;;;;;;;3.10;1.52;;;;;;;10.93;96.73;101204.97;5073406;28;20024;-39
2024/03/04 10:59:53;;;;;;;1.90;0.90;;;;;;;10.93;90.15;101204.13;5073379;28;20549;-39
2024/03/04 11:02:24;;;;;;;1.95;1.00;;;;;;;11.01;88.96;101209.25;5074191;28;20032;-40
2024/03/04 11:04:54;;;;;;;3.70;1.27;;;;;;;11.11;91.32;101200.59;5073296;28;20029;-39
2024/03/04 11:07:26;;;;;;;1.55;1.17;;;;;;;11.06;90.94;101199.38;5073264;28;20031;-39
2024/03/04 11:09:53;;;;;;;2.78;1.15;;;;;;;11.02;89.80;101202.75;5072998;28;20107;-39
2024/03/04 11:12:22;;;;;;;2.83;1.02;;;;;;;11.06;89.11;101193.97;5072958;28;20521;-40
2024/03/04 11:15:02;;;;;;;6.25;1.85;;;;;;;11.21;91.78;101201.72;5073218;28;20482;-40
2024/03/04 11:17:33;;;;;;;1.85;1.08;;;;;;;11.20;90.83;101199.25;5073516;28;20017;-40
2024/03/04 11:19:59;;;;;;;1.63;1.00;;;;;;;11.28;91.78;101202.47;5073206;28;20016;-40
2024/03/04 11:22:25;;;;;;;1.85;0.90;;;;;;;11.35;94.23;101196.97;5071890;28;20054;-39